Time;durP1;ratioP1;P1;durP2;ratioP2;P2;SDS_P1;SDS_P2;PMS_P1;PMS_P2;Temp;Humidity;BMP_temperature;BMP_pressure;BME280_temperature;BME280_humidity;BME280_pressure;Samples;Min_cycle;Max_cycle;Signal;HPM_P1;HPM_P2
2021/08/22 08:03:56;;;;;;;3.30;3.00;;;21.70;83.70;;;;;;5011988;28;20662;-88
2021/08/22 08:06:23;;;;;;;3.53;3.15;;;21.70;82.90;;;;;;5014430;28;20223;-87
2021/08/22 08:08:50;;;;;;;4.60;3.08;;;21.70;81.40;;;;;;5018090;28;20207;-87
2021/08/22 08:11:16;;;;;;;3.58;2.92;;;21.60;82.00;;;;;;5017468;28;20294;-87
2021/08/22 08:13:43;;;;;;;3.42;3.13;;;21.60;80.60;;;;;;5003377;28;20231;-86
2021/08/22 08:16:16;;;;;;;4.53;3.15;;;21.80;80.80;;;;;;5017315;28;20201;-86
2021/08/22 08:18:50;;;;;;;3.10;2.83;;;21.70;76.30;;;;;;5017356;28;20202;-87
2021/08/22 08:21:19;;;;;;;19.27;17.25;;;21.80;76.80;;;;;;5017437;28;20199;-86
2021/08/22 08:23:53;;;;;;;3.30;3.00;;;22.10;77.80;;;;;;5017912;28;20209;-88
2021/08/22 08:26:20;;;;;;;2.67;2.47;;;22.10;76.00;;;;;;5020300;28;20233;-83
2021/08/22 08:28:47;;;;;;;3.35;3.00;;;22.30;75.50;;;;;;5022138;28;20270;-84
2021/08/22 08:31:14;;;;;;;5.78;4.55;;;22.70;70.90;;;;;;5015509;28;20196;-84
2021/08/22 09:26:05;;;;;;;2.95;2.70;;;24.10;59.60;;;;;;5016889;28;20215;-84
2021/08/22 09:29:14;;;;;;;4.38;3.20;;;24.70;55.00;;;;;;5013497;28;20678;-83
2021/08/22 09:32:26;;;;;;;3.88;3.08;;;25.70;53.80;;;;;;5013109;28;20230;-82
2021/08/22 09:35:26;;;;;;;3.72;3.42;;;25.70;49.80;;;;;;4998292;28;20218;-85
2021/08/22 09:38:36;;;;;;;3.22;2.92;;;25.50;46.70;;;;;;4999397;28;20313;-83
2021/08/22 09:41:48;;;;;;;3.90;3.17;;;26.30;48.90;;;;;;4997795;28;20746;-84
2021/08/22 09:44:54;;;;;;;4.00;3.30;;;26.80;46.50;;;;;;4988032;28;20296;-85
2021/08/22 09:47:54;;;;;;;3.55;3.25;;;27.60;37.90;;;;;;4994969;28;20254;-84
2021/08/22 09:51:09;;;;;;;4.05;3.70;;;27.60;37.90;;;;;;4991550;28;20192;-85
2021/08/22 09:54:25;;;;;;;6.50;5.40;;;27.50;37.80;;;;;;4996069;28;20269;-84
2021/08/22 09:57:35;;;;;;;4.68;3.78;;;26.70;38.80;;;;;;4989984;28;20246;-84
2021/08/22 10:00:37;;;;;;;4.40;3.72;;;26.40;40.00;;;;;;4923449;28;20305;-85
2021/08/22 10:03:30;;;;;;;3.63;3.33;;;26.00;42.00;;;;;;4964964;28;20308;-84
2021/08/22 10:06:25;;;;;;;4.10;3.65;;;25.40;41.70;;;;;;4988217;28;20203;-83
2021/08/22 10:08:56;;;;;;;4.63;3.17;;;25.50;42.50;;;;;;4986280;28;20220;-84
2021/08/22 10:11:35;;;;;;;3.88;3.50;;;25.50;43.20;;;;;;4995687;28;20227;-85
2021/08/22 10:14:02;;;;;;;5.45;3.70;;;25.90;45.40;;;;;;4995621;28;20675;-84
2021/08/22 10:16:29;;;;;;;3.95;3.40;;;26.30;44.60;;;;;;4981937;28;20606;-85
2021/08/22 10:19:06;;;;;;;3.40;3.10;;;26.80;41.60;;;;;;4990730;28;20196;-85
2021/08/22 10:21:33;;;;;;;3.75;3.45;;;27.50;40.00;;;;;;4989191;28;20226;-87
2021/08/22 10:24:03;;;;;;;3.55;3.25;;;28.50;34.60;;;;;;4984713;28;20529;-85
2021/08/22 10:26:49;;;;;;;3.88;3.58;;;29.40;30.90;;;;;;4994102;28;20223;-84
2021/08/22 10:29:27;;;;;;;3.92;3.63;;;30.20;27.70;;;;;;4985504;28;20250;-84
2021/08/22 10:32:18;;;;;;;14.68;13.43;;;30.50;26.30;;;;;;4992789;28;20257;-84
2021/08/22 10:34:47;;;;;;;5.20;4.55;;;30.20;25.40;;;;;;4983746;28;20226;-86
2021/08/22 10:37:27;;;;;;;6.32;5.80;;;29.90;29.00;;;;;;4990467;28;20697;-86
2021/08/22 10:39:54;;;;;;;4.03;3.72;;;29.60;26.10;;;;;;4981678;28;20262;-85
2021/08/22 10:42:24;;;;;;;3.85;3.53;;;29.60;27.40;;;;;;4992004;28;20302;-85
2021/08/22 10:44:52;;;;;;;3.90;3.60;;;29.70;28.00;;;;;;4989293;28;20211;-87
2021/08/22 10:47:42;;;;;;;3.92;3.55;;;29.80;28.90;;;;;;4986032;28;20641;-84
2021/08/22 10:50:09;;;;;;;5.47;4.13;;;30.00;27.60;;;;;;4993736;28;20204;-85
2021/08/22 10:52:36;;;;;;;3.42;3.13;;;28.70;28.40;;;;;;4994505;28;20258;-85
2021/08/22 10:55:32;;;;;;;4.00;3.70;;;28.70;29.70;;;;;;4992428;28;20227;-83
2021/08/22 10:58:00;;;;;;;3.70;3.40;;;28.50;31.90;;;;;;4979194;28;20235;-84
2021/08/22 11:00:30;;;;;;;8.23;6.75;;;28.60;31.10;;;;;;4993062;28;20199;-85
2021/08/22 11:02:57;;;;;;;4.22;3.80;;;28.00;30.80;;;;;;4988274;28;20257;-84
2021/08/22 11:05:26;;;;;;;4.30;3.90;;;27.80;32.10;;;;;;4994375;28;20734;-83
2021/08/22 11:07:55;;;;;;;4.30;3.50;;;27.00;33.70;;;;;;4993569;28;20302;-85
2021/08/22 11:10:23;;;;;;;4.05;3.67;;;26.40;37.10;;;;;;4994570;28;20290;-84
2021/08/22 11:12:52;;;;;;;4.13;3.65;;;25.90;36.80;;;;;;4994189;28;20223;-84
2021/08/22 11:15:25;;;;;;;4.10;3.70;;;25.40;42.70;;;;;;4992910;28;20233;-84
2021/08/22 11:17:54;;;;;;;4.30;3.63;;;25.10;42.10;;;;;;4993459;28;20302;-81
2021/08/22 11:20:23;;;;;;;4.05;3.63;;;25.00;44.70;;;;;;4993572;28;20206;-83
2021/08/22 11:23:01;;;;;;;4.50;3.63;;;25.00;43.90;;;;;;4992332;28;20227;-83
2021/08/22 11:25:28;;;;;;;3.92;3.63;;;24.90;44.60;;;;;;4994916;28;20586;-82
2021/08/22 11:28:05;;;;;;;3.83;3.50;;;24.80;45.60;;;;;;4994646;28;20319;-83
2021/08/22 11:30:33;;;;;;;4.03;3.65;;;24.80;46.60;;;;;;4998440;28;20553;-82
2021/08/22 11:33:00;;;;;;;4.82;3.60;;;24.60;46.10;;;;;;5000073;28;20716;-82
2021/08/22 11:35:27;;;;;;;3.97;3.42;;;24.60;47.70;;;;;;5003252;28;20642;-83
2021/08/22 11:37:55;;;;;;;4.50;3.53;;;24.50;47.10;;;;;;4997742;28;20583;-83
2021/08/22 11:40:24;;;;;;;3.97;3.30;;;24.60;49.50;;;;;;4995394;28;20196;-84
2021/08/22 11:42:52;;;;;;;3.60;3.30;;;24.70;52.40;;;;;;4993166;28;20334;-81
2021/08/22 11:45:21;;;;;;;3.80;3.50;;;25.10;48.90;;;;;;4993112;28;20677;-83
2021/08/22 11:47:49;;;;;;;3.50;3.20;;;25.50;46.50;;;;;;4991791;28;20319;-83
2021/08/22 11:50:20;;;;;;;3.70;3.40;;;25.80;44.40;;;;;;4984991;28;20204;-85
2021/08/22 11:52:51;;;;;;;3.70;3.40;;;25.90;40.90;;;;;;4988400;28;20223;-82
2021/08/22 11:55:20;;;;;;;4.35;3.83;;;26.20;42.50;;;;;;4995869;28;20698;-82
2021/08/22 11:57:47;;;;;;;3.58;3.28;;;26.60;41.80;;;;;;4994961;28;20253;-84
2021/08/22 12:00:19;;;;;;;3.60;3.30;;;26.90;37.50;;;;;;4996470;28;20592;-83
2021/08/22 12:03:01;;;;;;;3.80;3.50;;;26.90;37.60;;;;;;4998651;28;20239;-81
2021/08/22 12:05:29;;;;;;;3.67;3.38;;;26.30;37.20;;;;;;4992980;28;20578;-83
2021/08/22 12:08:04;;;;;;;3.65;3.35;;;26.20;38.00;;;;;;4999709;28;20227;-82
2021/08/22 12:10:33;;;;;;;3.88;3.58;;;26.00;41.00;;;;;;4981101;28;20278;-83
2021/08/22 12:13:02;;;;;;;4.07;3.67;;;25.80;40.70;;;;;;4993821;28;20295;-82
2021/08/22 12:15:35;;;;;;;4.10;3.70;;;25.40;43.10;;;;;;4996607;28;20594;-84
2021/08/22 12:18:21;;;;;;;4.13;3.75;;;25.20;43.80;;;;;;4992007;28;20741;-83
2021/08/22 12:20:50;;;;;;;4.25;3.95;;;25.20;46.50;;;;;;4981475;28;20813;-83
2021/08/22 12:23:17;;;;;;;4.28;3.88;;;25.20;43.80;;;;;;4986028;28;20234;-87
2021/08/22 12:25:44;;;;;;;4.20;3.28;;;25.10;45.60;;;;;;4993146;28;20644;-84
2021/08/22 12:28:22;;;;;;;3.60;3.30;;;24.80;45.90;;;;;;4994366;28;20223;-82
2021/08/22 12:31:01;;;;;;;11.98;8.38;;;24.70;47.60;;;;;;4997306;28;20279;-82
2021/08/22 13:17:24;;;;;;;7.55;6.85;;;26.00;40.20;;;;;;4999263;28;20234;-83
2021/08/22 13:19:51;;;;;;;5.47;4.97;;;26.10;39.20;;;;;;5013708;28;20286;-86
2021/08/22 13:22:18;;;;;;;6.57;5.97;;;26.20;40.00;;;;;;5014153;28;20321;-84
2021/08/22 13:24:45;;;;;;;3.97;3.67;;;26.10;40.90;;;;;;5013673;28;20294;-82
2021/08/22 13:27:12;;;;;;;4.25;3.83;;;26.20;40.10;;;;;;5013688;28;20233;-83
2021/08/22 13:29:38;;;;;;;3.45;3.15;;;25.70;41.20;;;;;;5000791;28;20275;-85
2021/08/22 13:32:09;;;;;;;4.57;4.18;;;25.30;43.50;;;;;;5012759;28;20230;-83
2021/08/22 13:34:37;;;;;;;4.10;3.45;;;25.30;43.20;;;;;;5008167;28;20306;-82
2021/08/22 13:37:04;;;;;;;8.70;7.82;;;25.50;42.30;;;;;;5017859;28;20225;-85
2021/08/22 13:39:31;;;;;;;4.50;3.47;;;25.50;42.90;;;;;;5010612;28;20540;-82
2021/08/22 13:41:58;;;;;;;4.20;3.55;;;25.40;42.30;;;;;;5004525;28;20314;-82
2021/08/22 13:44:25;;;;;;;4.57;4.18;;;25.50;43.00;;;;;;5018519;28;20231;-82
2021/08/22 13:46:52;;;;;;;4.13;3.72;;;25.60;44.30;;;;;;5018417;28;20225;-82
2021/08/22 13:49:19;;;;;;;4.78;4.35;;;25.30;45.80;;;;;;5019345;28;20293;-81
2021/08/22 13:51:47;;;;;;;4.60;4.20;;;24.80;44.60;;;;;;5019222;28;20239;-82
2021/08/22 13:54:14;;;;;;;7.15;4.70;;;24.30;46.90;;;;;;5019845;28;20183;-84
2021/08/22 14:00:30;;;;;;;4.53;4.13;;;23.90;48.90;;;;;;5013622;28;20223;-83
2021/08/22 14:02:57;;;;;;;6.13;5.53;;;23.70;49.20;;;;;;5000675;28;20275;-84
2021/08/22 14:05:24;;;;;;;4.22;3.83;;;23.50;50.70;;;;;;5004872;28;20553;-84
2021/08/22 14:07:56;;;;;;;4.53;4.13;;;23.30;51.80;;;;;;5019580;28;20242;-84
2021/08/22 14:11:05;;;;;;;3.80;3.40;;;23.00;54.40;;;;;;5015661;28;20233;-83
2021/08/22 14:31:37;;;;;;;4.40;3.65;;;21.70;68.70;;;;;;5002165;28;20191;-84
